Weather observations for the past three days for
Goodyear Municipal
Metric (Imperial)
Date Time (mst) Wind (kph) Vis. (km) Weather Sky Cond. Temperature (ºC) Relative Humidity Wind Chill (°C) Heat Index (°C) Pressure Precipitation (cm)
Air Dwpt 6 hour altimeter (cm) sea level (mb) 1 hr 3 hr 6 hr
Max. Min.
05 08:47 Calm 16.09 Mostly Cloudy SCT100 SCT150 BKN250 32 14 33% 31 76.02 0.0
05 07:47 Calm 16.09 Mostly Cloudy SCT100 SCT150 BKN250 31 15 38% 31 76 0.0
05 06:47 Calm 16.09 Partly Cloudy SCT100 SCT150 29 14 40% 29 75.95 0.0
05 05:47 S 7 16.09 A Few Clouds FEW120 28 14 42% 28 75.92 0.0
04 20:47 W 11 16.09 Partly Cloudy SCT070 35 14 28% 34 75.77 0.0
04 19:47 SW 20 16.09 Partly Cloudy SCT070 37 14 25% 36 75.69 0.0
04 18:47 SW 20 16.09 Partly Cloudy SCT070 38 13 22% 37 75.67 0.0
04 17:47 SW 26 16.09 Partly Cloudy SCT070 40 12 19% 39 75.64 0.0
04 16:47 SW 26 G 39 16.09 Partly Cloudy SCT070 40 13 20% 39 75.64 0.0
04 15:47 SW 15 G 37 16.09 Partly Cloudy SCT070 39 14 23% 39 75.69 0.0
04 14:47 W 13 16.09 Partly Cloudy SCT070 39 16 26% 40 75.72 0.0
04 13:47 Vrbl 9 16.09 Partly Cloudy SCT070 38 18 31% 40 75.79 0.0
04 12:47 SE 7 16.09 Partly Cloudy SCT070 37 18 33% 39 75.84 0.0
04 11:47 S 7 16.09 A Few Clouds FEW070 36 19 37% 38 75.92 0.0
04 10:47 SW 9 16.09 A Few Clouds FEW200 33 21 49% 36 75.97 0.0
04 09:47 Vrbl 6 16.09 A Few Clouds FEW200 33 21 49% 36 75.97 0.0
04 08:47 SE 15 16.09 A Few Clouds FEW200 32 22 55% 36 75.95 0.0
04 07:47 SE 19 16.09 A Few Clouds FEW200 30 22 62% 33 75.92 0.0
04 06:47 SE 19 16.09 A Few Clouds FEW200 29 21 62% 31 75.87 0.0
04 05:47 SE 15 16.09 A Few Clouds FEW110 28 21 66% 30 75.82 0.0
03 20:47 SW 22 16.09 Mostly Cloudy SCT080 BKN150 BKN250 36 18 34% 37 75.64 0.0
03 19:47 S 11 16.09 Mostly Cloudy SCT080 BKN150 BKN250 36 17 32% 37 75.59 0.0
03 18:47 SW 15 16.09 Mostly Cloudy SCT080 BKN150 BKN250 38 15 25% 38 75.54 0.0
03 17:47 SE 7 16.09 Mostly Cloudy FEW080 SCT150 BKN250 38 16 27% 39 75.54 0.0
03 16:47 Vrbl 7 16.09 Mostly Cloudy SCT080 SCT150 BKN250 39 16 26% 40 75.57 0.0
03 15:47 SW 13 16.09 Mostly Cloudy SCT080 SCT150 BKN250 38 16 27% 39 75.59 0.0
03 14:47 Calm 16.09 Partly Cloudy SCT080 SCT150 38 17 29% 39 75.67 0.0
03 13:47 S 19 G 31 16.09 Partly Cloudy SCT080 SCT150 38 17 29% 39 75.74 0.0
03 12:47 Vrbl 7 16.09 A Few Clouds FEW080 FEW150 37 17 31% 38 75.82 0.0
03 11:47 Vrbl 7 16.09 A Few Clouds FEW080 FEW150 35 18 36% 36 75.9 0.0
03 10:47 Vrbl 11 16.09 A Few Clouds FEW200 35 18 36% 36 75.97 0.0
03 09:47 Vrbl 11 16.09 A Few Clouds FEW200 34 19 41% 36 75.97 0.0
03 08:47 SW 6 16.09 A Few Clouds FEW200 32 20 49% 34 76 0.0
03 07:47 W 6 16.09 Partly Cloudy SCT200 30 21 59% 33 76 0.0
03 06:47 SW 11 16.09 Partly Cloudy SCT200 29 21 62% 31 75.95 0.0
03 05:47 SW 11 16.09 Partly Cloudy SCT250 29 20 58% 31 75.9 0.0
02 20:47 SW 13 16.09 Partly Cloudy SCT120 SCT200 36 18 34% 37 75.79 0.0
02 19:47 SW 11 16.09 Partly Cloudy SCT120 SCT200 36 16 30% 36 75.77 0.0
02 18:47 W 19 16.09 Partly Cloudy SCT120 SCT200 38 16 27% 39 75.72 0.0
02 17:47 W 20 16.09 Partly Cloudy SCT120 SCT200 38 16 27% 39 75.72 0.0
02 16:47 W 15 16.09 Partly Cloudy SCT120 SCT200 38 16 27% 39 75.74 0.0
02 15:47 SW 20 G 41 16.09 Partly Cloudy SCT120 SCT200 38 16 27% 39 75.82 0.0
02 14:47 SW 30 16.09 A Few Clouds FEW120 38 17 29% 39 75.84 0.0
02 13:47 W 20 G 31 16.09 A Few Clouds FEW120 38 16 27% 39 75.92 0.0
02 12:47 SW 9 G 33 16.09 A Few Clouds FEW120 36 17 32% 37 76 0.0
02 11:47 SW 24 16.09 Partly Cloudy SCT120 37 16 29% 37 76.05 0.0
02 10:47 SW 9 16.09 Partly Cloudy SCT120 34 17 36% 35 76.1 0.0
02 09:47 SW 13 16.09 A Few Clouds FEW120 34 17 36% 35 76.1 0.0
Date Time (mst) Wind (kph) Vis. (km) Weather Sky Cond. Air Dwpt Max. Min. Relative Humidity Wind Chill (°C) Heat Index (°C) altimeter (cm) sea level (mb) 1 hr 3 hr 6 hr
6 hour
Temperature (ºC) Pressure Precipitation (cm)